sensor_id;sensor_type;location;lat;lon;timestamp;P1;durP1;ratioP1;P2;durP2;ratioP2
48550;SDS011;34397;51.176;6.738;2023-04-03T00:02:25;4.70;;;3.00;;
48550;SDS011;34397;51.176;6.738;2023-04-03T00:04:57;4.78;;;2.70;;
48550;SDS011;34397;51.176;6.738;2023-04-03T00:07:28;3.80;;;2.42;;
48550;SDS011;34397;51.176;6.738;2023-04-03T00:10:00;4.05;;;2.97;;
48550;SDS011;34397;51.176;6.738;2023-04-03T00:12:32;4.40;;;2.90;;
48550;SDS011;34397;51.176;6.738;2023-04-03T00:15:06;5.43;;;3.30;;
48550;SDS011;34397;51.176;6.738;2023-04-03T00:17:39;5.17;;;2.63;;
48550;SDS011;34397;51.176;6.738;2023-04-03T00:20:10;4.57;;;3.15;;
48550;SDS011;34397;51.176;6.738;2023-04-03T00:22:42;6.20;;;3.00;;
48550;SDS011;34397;51.176;6.738;2023-04-03T00:25:14;5.28;;;2.83;;
48550;SDS011;34397;51.176;6.738;2023-04-03T00:27:47;4.25;;;3.13;;
48550;SDS011;34397;51.176;6.738;2023-04-03T00:30:20;5.10;;;3.03;;
48550;SDS011;34397;51.176;6.738;2023-04-03T00:32:53;5.17;;;2.90;;
48550;SDS011;34397;51.176;6.738;2023-04-03T00:35:25;4.85;;;3.08;;
48550;SDS011;34397;51.176;6.738;2023-04-03T00:37:57;4.68;;;3.10;;
48550;SDS011;34397;51.176;6.738;2023-04-03T00:40:32;5.85;;;3.05;;
48550;SDS011;34397;51.176;6.738;2023-04-03T00:43:09;3.97;;;2.87;;
48550;SDS011;34397;51.176;6.738;2023-04-03T00:45:46;4.20;;;2.70;;
48550;SDS011;34397;51.176;6.738;2023-04-03T00:48:20;5.83;;;3.33;;
48550;SDS011;34397;51.176;6.738;2023-04-03T00:50:55;6.57;;;3.00;;
48550;SDS011;34397;51.176;6.738;2023-04-03T00:53:28;4.05;;;3.08;;
48550;SDS011;34397;51.176;6.738;2023-04-03T00:56:05;5.10;;;3.13;;
48550;SDS011;34397;51.176;6.738;2023-04-03T00:58:41;6.53;;;3.03;;
48550;SDS011;34397;51.176;6.738;2023-04-03T01:01:20;4.13;;;3.17;;
48550;SDS011;34397;51.176;6.738;2023-04-03T01:03:55;4.90;;;3.00;;
48550;SDS011;34397;51.176;6.738;2023-04-03T01:06:27;5.18;;;3.40;;
48550;SDS011;34397;51.176;6.738;2023-04-03T01:09:03;5.60;;;3.03;;
48550;SDS011;34397;51.176;6.738;2023-04-03T01:11:35;5.47;;;3.47;;
48550;SDS011;34397;51.176;6.738;2023-04-03T01:14:07;5.72;;;2.85;;
48550;SDS011;34397;51.176;6.738;2023-04-03T01:16:40;4.38;;;2.90;;
48550;SDS011;34397;51.176;6.738;2023-04-03T01:19:13;6.30;;;3.40;;
48550;SDS011;34397;51.176;6.738;2023-04-03T01:21:56;8.30;;;3.67;;
48550;SDS011;34397;51.176;6.738;2023-04-03T01:24:42;5.33;;;3.10;;
48550;SDS011;34397;51.176;6.738;2023-04-03T01:27:16;5.93;;;3.37;;
48550;SDS011;34397;51.176;6.738;2023-04-03T01:29:48;4.80;;;3.15;;
48550;SDS011;34397;51.176;6.738;2023-04-03T01:32:21;5.35;;;3.10;;
48550;SDS011;34397;51.176;6.738;2023-04-03T01:34:53;4.83;;;3.23;;
48550;SDS011;34397;51.176;6.738;2023-04-03T01:37:25;4.65;;;3.17;;
48550;SDS011;34397;51.176;6.738;2023-04-03T01:39:57;6.05;;;3.22;;
48550;SDS011;34397;51.176;6.738;2023-04-03T01:42:28;6.32;;;3.17;;
48550;SDS011;34397;51.176;6.738;2023-04-03T01:45:00;5.43;;;3.47;;
48550;SDS011;34397;51.176;6.738;2023-04-03T01:47:33;5.22;;;3.17;;
48550;SDS011;34397;51.176;6.738;2023-04-03T01:50:06;6.43;;;3.90;;
48550;SDS011;34397;51.176;6.738;2023-04-03T01:55:10;6.07;;;3.13;;
48550;SDS011;34397;51.176;6.738;2023-04-03T01:57:41;3.92;;;2.83;;
48550;SDS011;34397;51.176;6.738;2023-04-03T02:00:14;5.70;;;3.00;;
48550;SDS011;34397;51.176;6.738;2023-04-03T02:02:47;3.80;;;2.83;;
48550;SDS011;34397;51.176;6.738;2023-04-03T02:05:19;5.60;;;2.80;;
48550;SDS011;34397;51.176;6.738;2023-04-03T02:07:51;6.47;;;3.00;;
48550;SDS011;34397;51.176;6.738;2023-04-03T02:10:23;4.80;;;2.67;;
48550;SDS011;34397;51.176;6.738;2023-04-03T02:12:55;5.43;;;2.95;;
48550;SDS011;34397;51.176;6.738;2023-04-03T02:15:27;5.53;;;2.53;;
48550;SDS011;34397;51.176;6.738;2023-04-03T02:18:00;4.13;;;2.33;;
48550;SDS011;34397;51.176;6.738;2023-04-03T02:20:32;6.00;;;2.67;;
48550;SDS011;34397;51.176;6.738;2023-04-03T02:23:04;3.75;;;2.20;;
48550;SDS011;34397;51.176;6.738;2023-04-03T02:25:36;3.97;;;2.38;;
48550;SDS011;34397;51.176;6.738;2023-04-03T02:28:08;4.35;;;2.13;;
48550;SDS011;34397;51.176;6.738;2023-04-03T02:30:40;4.22;;;2.30;;
48550;SDS011;34397;51.176;6.738;2023-04-03T02:33:13;4.68;;;2.35;;
48550;SDS011;34397;51.176;6.738;2023-04-03T02:35:45;3.37;;;2.27;;
48550;SDS011;34397;51.176;6.738;2023-04-03T02:38:23;4.50;;;2.07;;
48550;SDS011;34397;51.176;6.738;2023-04-03T02:40:59;6.63;;;2.17;;
48550;SDS011;34397;51.176;6.738;2023-04-03T02:43:31;4.63;;;2.27;;
48550;SDS011;34397;51.176;6.738;2023-04-03T02:46:03;3.63;;;2.10;;
48550;SDS011;34397;51.176;6.738;2023-04-03T02:51:09;3.73;;;2.03;;
48550;SDS011;34397;51.176;6.738;2023-04-03T02:53:41;5.07;;;2.28;;
48550;SDS011;34397;51.176;6.738;2023-04-03T02:56:12;6.30;;;2.40;;
48550;SDS011;34397;51.176;6.738;2023-04-03T02:58:44;4.18;;;2.40;;
48550;SDS011;34397;51.176;6.738;2023-04-03T03:01:16;3.80;;;2.50;;
48550;SDS011;34397;51.176;6.738;2023-04-03T03:03:49;6.30;;;2.83;;
48550;SDS011;34397;51.176;6.738;2023-04-03T03:06:21;5.53;;;2.90;;
48550;SDS011;34397;51.176;6.738;2023-04-03T03:08:53;5.60;;;2.50;;
48550;SDS011;34397;51.176;6.738;2023-04-03T03:11:25;6.45;;;3.22;;
48550;SDS011;34397;51.176;6.738;2023-04-03T03:13:56;5.50;;;2.63;;
48550;SDS011;34397;51.176;6.738;2023-04-03T03:16:28;4.53;;;2.15;;
48550;SDS011;34397;51.176;6.738;2023-04-03T03:19:02;4.47;;;2.40;;
48550;SDS011;34397;51.176;6.738;2023-04-03T03:21:34;4.27;;;2.53;;
48550;SDS011;34397;51.176;6.738;2023-04-03T03:24:06;4.93;;;2.35;;
48550;SDS011;34397;51.176;6.738;2023-04-03T03:26:38;3.67;;;2.38;;
48550;SDS011;34397;51.176;6.738;2023-04-03T03:29:11;4.35;;;2.53;;
48550;SDS011;34397;51.176;6.738;2023-04-03T03:31:43;3.85;;;2.38;;
48550;SDS011;34397;51.176;6.738;2023-04-03T03:34:16;6.20;;;2.60;;
48550;SDS011;34397;51.176;6.738;2023-04-03T03:36:47;5.37;;;2.70;;
48550;SDS011;34397;51.176;6.738;2023-04-03T03:39:19;4.53;;;2.20;;
48550;SDS011;34397;51.176;6.738;2023-04-03T03:41:51;5.13;;;2.83;;
48550;SDS011;34397;51.176;6.738;2023-04-03T03:44:23;4.03;;;2.22;;
48550;SDS011;34397;51.176;6.738;2023-04-03T03:46:55;4.28;;;2.40;;
48550;SDS011;34397;51.176;6.738;2023-04-03T03:49:28;3.90;;;2.20;;
48550;SDS011;34397;51.176;6.738;2023-04-03T03:52:00;3.37;;;2.30;;
48550;SDS011;34397;51.176;6.738;2023-04-03T03:54:32;3.95;;;2.20;;
48550;SDS011;34397;51.176;6.738;2023-04-03T03:57:04;7.22;;;2.30;;
48550;SDS011;34397;51.176;6.738;2023-04-03T03:59:36;3.20;;;2.20;;
48550;SDS011;34397;51.176;6.738;2023-04-03T04:02:07;5.93;;;2.47;;
48550;SDS011;34397;51.176;6.738;2023-04-03T04:04:41;4.57;;;2.20;;
48550;SDS011;34397;51.176;6.738;2023-04-03T04:07:13;4.80;;;2.33;;
48550;SDS011;34397;51.176;6.738;2023-04-03T04:09:44;5.35;;;2.50;;
48550;SDS011;34397;51.176;6.738;2023-04-03T04:12:16;5.47;;;2.38;;
48550;SDS011;34397;51.176;6.738;2023-04-03T04:14:48;4.53;;;2.55;;
48550;SDS011;34397;51.176;6.738;2023-04-03T04:17:20;5.97;;;2.47;;
48550;SDS011;34397;51.176;6.738;2023-04-03T04:19:53;5.30;;;2.13;;
48550;SDS011;34397;51.176;6.738;2023-04-03T04:22:26;3.37;;;1.90;;
48550;SDS011;34397;51.176;6.738;2023-04-03T04:24:57;6.00;;;2.50;;
48550;SDS011;34397;51.176;6.738;2023-04-03T04:27:29;5.13;;;2.22;;
48550;SDS011;34397;51.176;6.738;2023-04-03T04:30:01;8.23;;;2.40;;
48550;SDS011;34397;51.176;6.738;2023-04-03T04:32:34;4.90;;;2.13;;
48550;SDS011;34397;51.176;6.738;2023-04-03T04:35:07;4.68;;;2.10;;
48550;SDS011;34397;51.176;6.738;2023-04-03T04:37:39;4.93;;;2.40;;
48550;SDS011;34397;51.176;6.738;2023-04-03T04:40:11;7.80;;;2.40;;
48550;SDS011;34397;51.176;6.738;2023-04-03T04:42:43;3.70;;;1.90;;
48550;SDS011;34397;51.176;6.738;2023-04-03T04:45:15;4.97;;;2.40;;
48550;SDS011;34397;51.176;6.738;2023-04-03T04:47:47;5.50;;;2.22;;
48550;SDS011;34397;51.176;6.738;2023-04-03T04:50:23;3.37;;;2.20;;
48550;SDS011;34397;51.176;6.738;2023-04-03T04:52:54;5.77;;;2.23;;
48550;SDS011;34397;51.176;6.738;2023-04-03T04:55:26;4.63;;;2.10;;
48550;SDS011;34397;51.176;6.738;2023-04-03T04:57:58;3.70;;;2.00;;
48550;SDS011;34397;51.176;6.738;2023-04-03T05:00:30;4.57;;;2.00;;
48550;SDS011;34397;51.176;6.738;2023-04-03T05:03:02;2.95;;;1.70;;
48550;SDS011;34397;51.176;6.738;2023-04-03T05:05:35;3.35;;;2.10;;
48550;SDS011;34397;51.176;6.738;2023-04-03T05:08:07;4.43;;;2.00;;
48550;SDS011;34397;51.176;6.738;2023-04-03T05:10:39;4.57;;;1.95;;
48550;SDS011;34397;51.176;6.738;2023-04-03T05:13:12;3.53;;;1.80;;
48550;SDS011;34397;51.176;6.738;2023-04-03T05:15:44;4.13;;;2.22;;
48550;SDS011;34397;51.176;6.738;2023-04-03T05:18:16;2.78;;;1.70;;
48550;SDS011;34397;51.176;6.738;2023-04-03T05:20:49;5.40;;;2.47;;
48550;SDS011;34397;51.176;6.738;2023-04-03T05:23:21;3.27;;;1.70;;
48550;SDS011;34397;51.176;6.738;2023-04-03T05:25:53;5.45;;;1.80;;
48550;SDS011;34397;51.176;6.738;2023-04-03T05:28:25;7.93;;;2.05;;
48550;SDS011;34397;51.176;6.738;2023-04-03T05:30:57;4.63;;;2.17;;
48550;SDS011;34397;51.176;6.738;2023-04-03T05:33:30;5.50;;;1.80;;
48550;SDS011;34397;51.176;6.738;2023-04-03T05:36:03;4.25;;;1.80;;
48550;SDS011;34397;51.176;6.738;2023-04-03T05:38:36;5.70;;;2.00;;
48550;SDS011;34397;51.176;6.738;2023-04-03T05:41:08;5.70;;;2.08;;
48550;SDS011;34397;51.176;6.738;2023-04-03T05:43:40;4.40;;;1.85;;
48550;SDS011;34397;51.176;6.738;2023-04-03T05:46:13;3.63;;;1.52;;
48550;SDS011;34397;51.176;6.738;2023-04-03T05:48:47;4.10;;;1.67;;
48550;SDS011;34397;51.176;6.738;2023-04-03T05:51:21;4.75;;;1.80;;
48550;SDS011;34397;51.176;6.738;2023-04-03T05:54:08;6.33;;;2.47;;
48550;SDS011;34397;51.176;6.738;2023-04-03T05:56:44;5.50;;;1.97;;
48550;SDS011;34397;51.176;6.738;2023-04-03T05:59:15;3.13;;;1.80;;
48550;SDS011;34397;51.176;6.738;2023-04-03T06:01:47;4.53;;;1.90;;
48550;SDS011;34397;51.176;6.738;2023-04-03T06:04:20;3.42;;;1.77;;
48550;SDS011;34397;51.176;6.738;2023-04-03T06:06:53;7.43;;;1.90;;
48550;SDS011;34397;51.176;6.738;2023-04-03T06:09:28;6.47;;;2.10;;
48550;SDS011;34397;51.176;6.738;2023-04-03T06:14:32;4.03;;;1.90;;
48550;SDS011;34397;51.176;6.738;2023-04-03T06:17:04;8.15;;;2.15;;
48550;SDS011;34397;51.176;6.738;2023-04-03T06:19:36;6.88;;;2.30;;
48550;SDS011;34397;51.176;6.738;2023-04-03T06:22:09;3.85;;;1.65;;
48550;SDS011;34397;51.176;6.738;2023-04-03T06:24:42;6.87;;;1.97;;
48550;SDS011;34397;51.176;6.738;2023-04-03T06:27:14;4.78;;;1.60;;
48550;SDS011;34397;51.176;6.738;2023-04-03T06:29:46;3.30;;;2.00;;
48550;SDS011;34397;51.176;6.738;2023-04-03T06:34:50;6.37;;;1.80;;
48550;SDS011;34397;51.176;6.738;2023-04-03T06:39:58;4.00;;;1.70;;
48550;SDS011;34397;51.176;6.738;2023-04-03T06:42:34;3.97;;;1.90;;
48550;SDS011;34397;51.176;6.738;2023-04-03T06:45:06;7.45;;;1.70;;
48550;SDS011;34397;51.176;6.738;2023-04-03T06:47:41;5.47;;;1.80;;
48550;SDS011;34397;51.176;6.738;2023-04-03T06:50:13;5.35;;;1.90;;
48550;SDS011;34397;51.176;6.738;2023-04-03T06:52:46;4.00;;;1.80;;
48550;SDS011;34397;51.176;6.738;2023-04-03T06:55:18;4.73;;;1.60;;
48550;SDS011;34397;51.176;6.738;2023-04-03T06:57:50;5.60;;;1.90;;
48550;SDS011;34397;51.176;6.738;2023-04-03T07:00:22;7.03;;;1.50;;
48550;SDS011;34397;51.176;6.738;2023-04-03T07:05:27;4.37;;;1.50;;
48550;SDS011;34397;51.176;6.738;2023-04-03T07:08:01;3.00;;;1.50;;
48550;SDS011;34397;51.176;6.738;2023-04-03T07:10:33;5.10;;;1.60;;
48550;SDS011;34397;51.176;6.738;2023-04-03T07:13:05;5.78;;;1.67;;
48550;SDS011;34397;51.176;6.738;2023-04-03T07:15:37;4.47;;;1.35;;
48550;SDS011;34397;51.176;6.738;2023-04-03T07:18:09;5.57;;;1.50;;
48550;SDS011;34397;51.176;6.738;2023-04-03T07:20:41;5.00;;;1.83;;
48550;SDS011;34397;51.176;6.738;2023-04-03T07:23:14;3.63;;;1.70;;
48550;SDS011;34397;51.176;6.738;2023-04-03T07:25:46;5.07;;;1.60;;
48550;SDS011;34397;51.176;6.738;2023-04-03T07:28:21;3.13;;;1.20;;
48550;SDS011;34397;51.176;6.738;2023-04-03T07:30:58;4.13;;;1.67;;
48550;SDS011;34397;51.176;6.738;2023-04-03T07:33:32;4.17;;;1.50;;
48550;SDS011;34397;51.176;6.738;2023-04-03T07:36:05;4.00;;;1.50;;
48550;SDS011;34397;51.176;6.738;2023-04-03T07:38:39;2.50;;;1.23;;
48550;SDS011;34397;51.176;6.738;2023-04-03T07:41:11;5.03;;;1.20;;
48550;SDS011;34397;51.176;6.738;2023-04-03T07:43:45;5.93;;;1.50;;
48550;SDS011;34397;51.176;6.738;2023-04-03T07:46:19;2.90;;;1.33;;
48550;SDS011;34397;51.176;6.738;2023-04-03T07:48:51;3.65;;;1.40;;
48550;SDS011;34397;51.176;6.738;2023-04-03T07:51:23;6.60;;;1.27;;
48550;SDS011;34397;51.176;6.738;2023-04-03T07:53:57;3.77;;;1.17;;
48550;SDS011;34397;51.176;6.738;2023-04-03T07:56:29;2.30;;;1.20;;
48550;SDS011;34397;51.176;6.738;2023-04-03T07:59:01;2.88;;;1.00;;
48550;SDS011;34397;51.176;6.738;2023-04-03T08:01:33;3.10;;;1.15;;
48550;SDS011;34397;51.176;6.738;2023-04-03T08:04:05;3.65;;;1.20;;
48550;SDS011;34397;51.176;6.738;2023-04-03T08:06:37;3.33;;;1.38;;
48550;SDS011;34397;51.176;6.738;2023-04-03T08:09:10;1.92;;;1.00;;
48550;SDS011;34397;51.176;6.738;2023-04-03T08:11:43;3.07;;;1.20;;
48550;SDS011;34397;51.176;6.738;2023-04-03T08:14:15;3.78;;;1.23;;
48550;SDS011;34397;51.176;6.738;2023-04-03T08:16:48;4.00;;;1.20;;
48550;SDS011;34397;51.176;6.738;2023-04-03T08:19:20;4.55;;;1.33;;
48550;SDS011;34397;51.176;6.738;2023-04-03T08:21:52;2.83;;;1.13;;
48550;SDS011;34397;51.176;6.738;2023-04-03T08:24:26;3.60;;;0.90;;
48550;SDS011;34397;51.176;6.738;2023-04-03T08:26:58;3.60;;;1.03;;
48550;SDS011;34397;51.176;6.738;2023-04-03T08:29:30;3.47;;;1.15;;
48550;SDS011;34397;51.176;6.738;2023-04-03T08:32:02;2.78;;;1.10;;
48550;SDS011;34397;51.176;6.738;2023-04-03T08:34:34;3.63;;;1.17;;
48550;SDS011;34397;51.176;6.738;2023-04-03T08:37:06;2.87;;;0.97;;
48550;SDS011;34397;51.176;6.738;2023-04-03T08:39:40;4.07;;;1.23;;
48550;SDS011;34397;51.176;6.738;2023-04-03T08:42:14;2.97;;;1.17;;
48550;SDS011;34397;51.176;6.738;2023-04-03T08:45:05;5.33;;;1.03;;
48550;SDS011;34397;51.176;6.738;2023-04-03T08:47:42;7.67;;;1.50;;
48550;SDS011;34397;51.176;6.738;2023-04-03T08:50:23;6.10;;;1.13;;
48550;SDS011;34397;51.176;6.738;2023-04-03T08:53:01;3.50;;;0.93;;
48550;SDS011;34397;51.176;6.738;2023-04-03T08:55:39;2.97;;;0.77;;
48550;SDS011;34397;51.176;6.738;2023-04-03T08:58:15;2.53;;;0.70;;
48550;SDS011;34397;51.176;6.738;2023-04-03T09:00:50;3.05;;;1.42;;
48550;SDS011;34397;51.176;6.738;2023-04-03T09:03:28;2.38;;;0.95;;
48550;SDS011;34397;51.176;6.738;2023-04-03T09:06:02;1.58;;;0.70;;
48550;SDS011;34397;51.176;6.738;2023-04-03T09:08:37;2.13;;;0.90;;
48550;SDS011;34397;51.176;6.738;2023-04-03T09:11:21;4.35;;;1.52;;
48550;SDS011;34397;51.176;6.738;2023-04-03T09:13:59;2.00;;;0.82;;
48550;SDS011;34397;51.176;6.738;2023-04-03T09:16:38;3.25;;;0.75;;
48550;SDS011;34397;51.176;6.738;2023-04-03T09:19:21;3.45;;;1.15;;
48550;SDS011;34397;51.176;6.738;2023-04-03T09:22:11;4.90;;;1.00;;
48550;SDS011;34397;51.176;6.738;2023-04-03T09:24:50;1.88;;;0.70;;
48550;SDS011;34397;51.176;6.738;2023-04-03T09:27:30;2.95;;;0.90;;
48550;SDS011;34397;51.176;6.738;2023-04-03T09:30:02;2.22;;;0.77;;
48550;SDS011;34397;51.176;6.738;2023-04-03T09:32:34;2.65;;;0.85;;
48550;SDS011;34397;51.176;6.738;2023-04-03T09:37:50;2.50;;;0.90;;
48550;SDS011;34397;51.176;6.738;2023-04-03T09:40:30;3.70;;;0.90;;
48550;SDS011;34397;51.176;6.738;2023-04-03T09:46:15;4.22;;;0.90;;
48550;SDS011;34397;51.176;6.738;2023-04-03T09:48:57;3.35;;;1.00;;
48550;SDS011;34397;51.176;6.738;2023-04-03T09:51:31;1.90;;;0.90;;
48550;SDS011;34397;51.176;6.738;2023-04-03T09:54:23;2.55;;;0.88;;
48550;SDS011;34397;51.176;6.738;2023-04-03T09:57:03;6.05;;;0.98;;
48550;SDS011;34397;51.176;6.738;2023-04-03T09:59:42;1.92;;;0.90;;
48550;SDS011;34397;51.176;6.738;2023-04-03T10:02:21;2.63;;;0.80;;
48550;SDS011;34397;51.176;6.738;2023-04-03T10:05:24;4.03;;;1.10;;
48550;SDS011;34397;51.176;6.738;2023-04-03T10:08:19;3.13;;;0.90;;
48550;SDS011;34397;51.176;6.738;2023-04-03T10:13:51;3.03;;;0.88;;
48550;SDS011;34397;51.176;6.738;2023-04-03T10:16:28;1.90;;;0.93;;
48550;SDS011;34397;51.176;6.738;2023-04-03T10:19:13;2.35;;;1.00;;
48550;SDS011;34397;51.176;6.738;2023-04-03T10:22:04;1.88;;;0.77;;
48550;SDS011;34397;51.176;6.738;2023-04-03T10:24:52;2.65;;;0.80;;
48550;SDS011;34397;51.176;6.738;2023-04-03T10:27:36;1.73;;;0.70;;
48550;SDS011;34397;51.176;6.738;2023-04-03T10:30:20;3.28;;;0.90;;
48550;SDS011;34397;51.176;6.738;2023-04-03T10:33:19;2.67;;;0.77;;
48550;SDS011;34397;51.176;6.738;2023-04-03T10:36:07;1.77;;;0.82;;
48550;SDS011;34397;51.176;6.738;2023-04-03T10:38:51;1.58;;;0.98;;
48550;SDS011;34397;51.176;6.738;2023-04-03T10:41:36;4.72;;;1.20;;
48550;SDS011;34397;51.176;6.738;2023-04-03T10:44:24;3.17;;;0.90;;
48550;SDS011;34397;51.176;6.738;2023-04-03T10:47:07;1.88;;;0.70;;
48550;SDS011;34397;51.176;6.738;2023-04-03T10:49:50;2.88;;;0.80;;
48550;SDS011;34397;51.176;6.738;2023-04-03T10:52:35;1.75;;;0.93;;
48550;SDS011;34397;51.176;6.738;2023-04-03T10:55:21;2.90;;;0.70;;
48550;SDS011;34397;51.176;6.738;2023-04-03T10:58:03;1.85;;;0.70;;
48550;SDS011;34397;51.176;6.738;2023-04-03T11:00:37;2.22;;;0.90;;
48550;SDS011;34397;51.176;6.738;2023-04-03T11:03:14;1.85;;;0.80;;
48550;SDS011;34397;51.176;6.738;2023-04-03T11:05:57;1.50;;;0.60;;
48550;SDS011;34397;51.176;6.738;2023-04-03T11:08:33;1.20;;;0.52;;
48550;SDS011;34397;51.176;6.738;2023-04-03T11:11:11;1.20;;;0.70;;
48550;SDS011;34397;51.176;6.738;2023-04-03T11:13:48;3.05;;;0.77;;
48550;SDS011;34397;51.176;6.738;2023-04-03T11:16:24;1.83;;;0.77;;
48550;SDS011;34397;51.176;6.738;2023-04-03T11:18:59;1.80;;;1.00;;
48550;SDS011;34397;51.176;6.738;2023-04-03T11:21:37;0.95;;;0.70;;
48550;SDS011;34397;51.176;6.738;2023-04-03T11:24:15;8.93;;;1.63;;
48550;SDS011;34397;51.176;6.738;2023-04-03T11:26:53;2.30;;;0.95;;
48550;SDS011;34397;51.176;6.738;2023-04-03T11:29:28;1.67;;;0.80;;
48550;SDS011;34397;51.176;6.738;2023-04-03T11:32:09;1.83;;;0.95;;
48550;SDS011;34397;51.176;6.738;2023-04-03T11:34:58;2.88;;;1.00;;
48550;SDS011;34397;51.176;6.738;2023-04-03T11:37:34;1.75;;;0.90;;
48550;SDS011;34397;51.176;6.738;2023-04-03T11:40:24;3.22;;;1.05;;
48550;SDS011;34397;51.176;6.738;2023-04-03T11:43:04;2.60;;;1.00;;
48550;SDS011;34397;51.176;6.738;2023-04-03T11:45:49;2.50;;;0.63;;
48550;SDS011;34397;51.176;6.738;2023-04-03T12:00:47;1.48;;;0.60;;
48550;SDS011;34397;51.176;6.738;2023-04-03T12:12:55;0.75;;;0.50;;
48550;SDS011;34397;51.176;6.738;2023-04-03T12:24:51;3.00;;;0.90;;
48550;SDS011;34397;51.176;6.738;2023-04-03T12:27:26;1.73;;;0.60;;
48550;SDS011;34397;51.176;6.738;2023-04-03T12:30:05;0.75;;;0.52;;
48550;SDS011;34397;51.176;6.738;2023-04-03T12:32:48;4.97;;;0.68;;
48550;SDS011;34397;51.176;6.738;2023-04-03T12:35:34;1.60;;;0.60;;
48550;SDS011;34397;51.176;6.738;2023-04-03T12:38:16;1.98;;;0.73;;
48550;SDS011;34397;51.176;6.738;2023-04-03T12:41:11;1.88;;;0.68;;
48550;SDS011;34397;51.176;6.738;2023-04-03T12:43:58;3.45;;;0.80;;
48550;SDS011;34397;51.176;6.738;2023-04-03T12:46:42;3.47;;;0.77;;
48550;SDS011;34397;51.176;6.738;2023-04-03T12:49:26;1.83;;;0.80;;
48550;SDS011;34397;51.176;6.738;2023-04-03T12:52:15;2.35;;;0.70;;
48550;SDS011;34397;51.176;6.738;2023-04-03T12:54:53;2.20;;;1.15;;
48550;SDS011;34397;51.176;6.738;2023-04-03T12:57:26;13.05;;;2.25;;
48550;SDS011;34397;51.176;6.738;2023-04-03T13:00:00;2.40;;;1.13;;
48550;SDS011;34397;51.176;6.738;2023-04-03T13:02:50;3.70;;;0.73;;
48550;SDS011;34397;51.176;6.738;2023-04-03T13:07:55;1.88;;;0.60;;
48550;SDS011;34397;51.176;6.738;2023-04-03T13:10:31;1.58;;;0.68;;
48550;SDS011;34397;51.176;6.738;2023-04-03T13:13:21;2.72;;;0.90;;
48550;SDS011;34397;51.176;6.738;2023-04-03T13:15:55;3.17;;;1.23;;
48550;SDS011;34397;51.176;6.738;2023-04-03T13:18:29;2.13;;;0.82;;
48550;SDS011;34397;51.176;6.738;2023-04-03T13:21:03;1.48;;;0.80;;
48550;SDS011;34397;51.176;6.738;2023-04-03T13:23:38;1.17;;;0.60;;
48550;SDS011;34397;51.176;6.738;2023-04-03T13:26:15;2.45;;;1.10;;
48550;SDS011;34397;51.176;6.738;2023-04-03T13:28:49;2.13;;;1.10;;
48550;SDS011;34397;51.176;6.738;2023-04-03T13:31:25;1.65;;;0.70;;
48550;SDS011;34397;51.176;6.738;2023-04-03T13:34:02;1.00;;;0.60;;
48550;SDS011;34397;51.176;6.738;2023-04-03T13:36:38;1.80;;;1.15;;
48550;SDS011;34397;51.176;6.738;2023-04-03T13:39:20;1.48;;;0.70;;
48550;SDS011;34397;51.176;6.738;2023-04-03T13:41:55;2.17;;;0.98;;
48550;SDS011;34397;51.176;6.738;2023-04-03T13:44:33;3.17;;;0.57;;
48550;SDS011;34397;51.176;6.738;2023-04-03T13:47:18;2.70;;;0.60;;
48550;SDS011;34397;51.176;6.738;2023-04-03T13:49:59;6.10;;;0.85;;
48550;SDS011;34397;51.176;6.738;2023-04-03T13:52:44;2.70;;;1.00;;
48550;SDS011;34397;51.176;6.738;2023-04-03T13:55:21;2.22;;;0.90;;
48550;SDS011;34397;51.176;6.738;2023-04-03T13:57:57;3.05;;;0.90;;
48550;SDS011;34397;51.176;6.738;2023-04-03T14:00:36;2.67;;;1.00;;
48550;SDS011;34397;51.176;6.738;2023-04-03T14:03:16;2.15;;;0.90;;
48550;SDS011;34397;51.176;6.738;2023-04-03T14:05:52;1.52;;;0.70;;
48550;SDS011;34397;51.176;6.738;2023-04-03T14:08:24;1.63;;;0.80;;
48550;SDS011;34397;51.176;6.738;2023-04-03T14:10:57;2.67;;;1.00;;
48550;SDS011;34397;51.176;6.738;2023-04-03T14:13:30;1.67;;;0.70;;
48550;SDS011;34397;51.176;6.738;2023-04-03T14:16:02;2.58;;;1.00;;
48550;SDS011;34397;51.176;6.738;2023-04-03T14:18:38;1.85;;;0.73;;
48550;SDS011;34397;51.176;6.738;2023-04-03T14:21:10;2.45;;;0.85;;
48550;SDS011;34397;51.176;6.738;2023-04-03T14:23:44;2.28;;;0.93;;
48550;SDS011;34397;51.176;6.738;2023-04-03T14:26:17;1.80;;;0.80;;
48550;SDS011;34397;51.176;6.738;2023-04-03T14:28:52;2.53;;;0.90;;
48550;SDS011;34397;51.176;6.738;2023-04-03T14:31:26;1.98;;;0.68;;
48550;SDS011;34397;51.176;6.738;2023-04-03T14:36:32;2.58;;;1.30;;
48550;SDS011;34397;51.176;6.738;2023-04-03T14:39:04;3.22;;;0.90;;
48550;SDS011;34397;51.176;6.738;2023-04-03T14:41:38;2.22;;;0.80;;
48550;SDS011;34397;51.176;6.738;2023-04-03T14:44:10;2.42;;;0.80;;
48550;SDS011;34397;51.176;6.738;2023-04-03T14:51:50;1.25;;;0.75;;
48550;SDS011;34397;51.176;6.738;2023-04-03T14:54:23;1.10;;;0.60;;
48550;SDS011;34397;51.176;6.738;2023-04-03T14:56:59;1.27;;;0.82;;
48550;SDS011;34397;51.176;6.738;2023-04-03T14:59:31;1.77;;;0.80;;
48550;SDS011;34397;51.176;6.738;2023-04-03T15:02:05;1.95;;;0.82;;
48550;SDS011;34397;51.176;6.738;2023-04-03T15:04:57;2.85;;;0.90;;
48550;SDS011;34397;51.176;6.738;2023-04-03T15:07:31;4.20;;;0.70;;
48550;SDS011;34397;51.176;6.738;2023-04-03T15:10:17;1.30;;;0.65;;
48550;SDS011;34397;51.176;6.738;2023-04-03T15:12:51;1.88;;;0.82;;
48550;SDS011;34397;51.176;6.738;2023-04-03T15:15:24;1.75;;;0.75;;
48550;SDS011;34397;51.176;6.738;2023-04-03T15:17:59;4.55;;;0.90;;
48550;SDS011;34397;51.176;6.738;2023-04-03T15:20:33;1.38;;;0.70;;
48550;SDS011;34397;51.176;6.738;2023-04-03T15:23:05;2.47;;;0.82;;
48550;SDS011;34397;51.176;6.738;2023-04-03T15:25:37;1.95;;;0.80;;
48550;SDS011;34397;51.176;6.738;2023-04-03T15:28:09;1.45;;;0.77;;
48550;SDS011;34397;51.176;6.738;2023-04-03T15:30:51;1.92;;;0.95;;
48550;SDS011;34397;51.176;6.738;2023-04-03T15:33:22;3.53;;;0.82;;
48550;SDS011;34397;51.176;6.738;2023-04-03T15:35:56;1.27;;;0.60;;
48550;SDS011;34397;51.176;6.738;2023-04-03T15:38:28;2.45;;;1.00;;
48550;SDS011;34397;51.176;6.738;2023-04-03T15:41:00;14.85;;;2.00;;
48550;SDS011;34397;51.176;6.738;2023-04-03T15:43:32;6.00;;;0.98;;
48550;SDS011;34397;51.176;6.738;2023-04-03T15:48:36;1.85;;;0.77;;
48550;SDS011;34397;51.176;6.738;2023-04-03T15:51:10;2.95;;;0.90;;
48550;SDS011;34397;51.176;6.738;2023-04-03T15:53:41;5.25;;;0.70;;
48550;SDS011;34397;51.176;6.738;2023-04-03T15:56:13;2.13;;;0.75;;
48550;SDS011;34397;51.176;6.738;2023-04-03T15:58:45;3.28;;;1.23;;
48550;SDS011;34397;51.176;6.738;2023-04-03T16:01:17;2.13;;;0.82;;
48550;SDS011;34397;51.176;6.738;2023-04-03T16:03:49;2.35;;;0.93;;
48550;SDS011;34397;51.176;6.738;2023-04-03T16:06:22;1.02;;;0.50;;
48550;SDS011;34397;51.176;6.738;2023-04-03T16:08:56;1.17;;;0.75;;
48550;SDS011;34397;51.176;6.738;2023-04-03T16:11:28;4.97;;;0.73;;
48550;SDS011;34397;51.176;6.738;2023-04-03T16:14:00;3.25;;;0.88;;
48550;SDS011;34397;51.176;6.738;2023-04-03T16:16:31;2.20;;;0.80;;
48550;SDS011;34397;51.176;6.738;2023-04-03T16:21:37;2.20;;;1.02;;
48550;SDS011;34397;51.176;6.738;2023-04-03T16:24:09;3.55;;;0.85;;
48550;SDS011;34397;51.176;6.738;2023-04-03T16:26:41;2.17;;;1.10;;
48550;SDS011;34397;51.176;6.738;2023-04-03T16:29:13;1.70;;;0.98;;
48550;SDS011;34397;51.176;6.738;2023-04-03T16:31:45;1.70;;;0.82;;
48550;SDS011;34397;51.176;6.738;2023-04-03T16:34:17;2.35;;;0.80;;
48550;SDS011;34397;51.176;6.738;2023-04-03T16:36:50;1.60;;;0.80;;
48550;SDS011;34397;51.176;6.738;2023-04-03T16:39:22;2.30;;;0.95;;
48550;SDS011;34397;51.176;6.738;2023-04-03T16:41:54;1.55;;;0.70;;
48550;SDS011;34397;51.176;6.738;2023-04-03T16:44:26;3.40;;;1.05;;
48550;SDS011;34397;51.176;6.738;2023-04-03T16:46:58;1.25;;;0.63;;